Time;durP1;ratioP1;P1;durP2;ratioP2;P2;SDS_P1;SDS_P2;PMS_P1;PMS_P2;Temp;Humidity;BMP_temperature;BMP_pressure;BME280_temperature;BME280_humidity;BME280_pressure;Samples;Min_cycle;Max_cycle;Signal;HPM_P1;HPM_P2
2023/06/17 05:03:44;;;;;;;9.43;6.05;;;15.70;87.30;;;;;;4958416;28;20079;-70
2023/06/17 05:06:10;;;;;;;7.68;5.88;;;15.70;87.50;;;;;;4946394;29;20047;-70
2023/06/17 05:08:35;;;;;;;9.68;6.10;;;15.70;87.60;;;;;;4945650;29;20027;-69
2023/06/17 05:11:01;;;;;;;10.38;6.50;;;15.70;87.50;;;;;;4946274;29;20309;-70
2023/06/17 05:13:28;;;;;;;8.20;6.30;;;15.70;87.70;;;;;;4947383;29;20036;-70
2023/06/17 05:15:55;;;;;;;9.85;6.30;;;15.80;87.30;;;;;;4945601;29;20090;-70
2023/06/17 05:18:20;;;;;;;8.02;6.10;;;15.80;87.30;;;;;;4946282;29;20030;-70
2023/06/17 05:20:46;;;;;;;9.07;6.35;;;15.80;87.20;;;;;;4945543;29;20039;-71
2023/06/17 05:23:12;;;;;;;9.52;6.55;;;15.80;87.40;;;;;;4946325;29;20217;-69
2023/06/17 05:25:38;;;;;;;9.15;6.40;;;15.80;87.40;;;;;;4945655;29;20027;-70
2023/06/17 05:28:06;;;;;;;12.10;6.07;;;15.90;87.40;;;;;;4945777;29;20027;-69
2023/06/17 05:30:33;;;;;;;10.35;6.32;;;16.00;87.10;;;;;;4947896;29;20047;-71
2023/06/17 05:33:01;;;;;;;12.25;6.68;;;16.10;86.70;;;;;;4948246;29;20027;-71
2023/06/17 05:35:28;;;;;;;10.80;6.18;;;16.10;86.40;;;;;;4945963;29;20062;-69
2023/06/17 05:37:54;;;;;;;11.55;6.70;;;16.10;86.40;;;;;;4946910;29;20016;-72
2023/06/17 05:40:19;;;;;;;8.77;6.10;;;16.30;86.30;;;;;;4947125;29;20297;-71
2023/06/17 05:42:45;;;;;;;9.82;6.60;;;16.40;85.90;;;;;;4945311;29;20207;-70
2023/06/17 05:45:11;;;;;;;9.77;6.53;;;16.40;85.80;;;;;;4945538;29;20024;-71
2023/06/17 05:47:38;;;;;;;12.48;6.13;;;16.50;85.50;;;;;;4945389;29;20066;-71
2023/06/17 05:50:04;;;;;;;12.63;7.25;;;16.60;85.40;;;;;;4945627;29;20040;-71
2023/06/17 05:52:31;;;;;;;9.48;6.43;;;16.60;84.70;;;;;;4930026;29;20027;-71
2023/06/17 05:54:56;;;;;;;9.55;6.47;;;16.70;85.00;;;;;;4946163;29;20083;-71
2023/06/17 05:57:22;;;;;;;9.43;6.43;;;16.70;84.60;;;;;;4946545;29;20028;-70
2023/06/17 05:59:48;;;;;;;8.85;6.47;;;16.80;84.50;;;;;;4962380;29;20313;-70
2023/06/17 06:02:14;;;;;;;12.63;6.75;;;16.90;84.00;;;;;;4946386;29;20036;-72
2023/06/17 06:04:39;;;;;;;8.93;6.43;;;17.00;83.60;;;;;;4944272;29;20048;-70
2023/06/17 06:07:07;;;;;;;9.15;6.47;;;17.20;83.40;;;;;;4945432;29;20329;-69
2023/06/17 06:09:33;;;;;;;10.15;7.15;;;17.30;82.80;;;;;;4945229;29;20035;-69
2023/06/17 06:11:58;;;;;;;9.23;6.60;;;17.50;82.30;;;;;;4946158;29;20036;-69
2023/06/17 06:14:24;;;;;;;9.98;6.45;;;17.60;81.70;;;;;;4945158;29;20031;-70
2023/06/17 06:16:51;;;;;;;11.93;7.60;;;17.80;81.90;;;;;;4944766;29;20074;-69
2023/06/17 06:19:16;;;;;;;9.82;8.13;;;17.90;81.00;;;;;;4945204;29;20043;-68
2023/06/17 06:21:42;;;;;;;10.93;7.45;;;18.20;80.40;;;;;;4945857;29;20039;-70
2023/06/17 06:24:08;;;;;;;11.40;7.25;;;18.40;79.50;;;;;;4944637;29;20047;-69
2023/06/17 06:26:36;;;;;;;10.27;7.10;;;18.50;79.00;;;;;;4944931;29;20035;-71
2023/06/17 06:29:03;;;;;;;10.32;6.93;;;18.70;78.60;;;;;;4944715;29;20040;-69
2023/06/17 06:31:29;;;;;;;10.40;7.68;;;18.80;78.10;;;;;;4944973;29;20027;-71
2023/06/17 06:33:55;;;;;;;9.73;7.00;;;18.90;77.30;;;;;;4944358;29;20081;-70
2023/06/17 06:36:21;;;;;;;13.75;8.00;;;19.10;77.10;;;;;;4945936;29;20032;-70
2023/06/17 06:38:47;;;;;;;10.73;7.28;;;19.20;76.90;;;;;;4944435;29;20038;-70
2023/06/17 06:41:13;;;;;;;9.50;6.53;;;19.40;76.80;;;;;;4944463;29;20368;-70
2023/06/17 06:43:46;;;;;;;11.63;6.47;;;19.40;76.00;;;;;;4944277;29;20345;-70
2023/06/17 06:46:16;;;;;;;10.18;6.18;;;19.60;75.60;;;;;;4944670;29;20071;-70
2023/06/17 06:48:42;;;;;;;9.48;6.50;;;19.60;75.60;;;;;;4928757;29;20075;-70
2023/06/17 06:51:09;;;;;;;9.18;5.95;;;19.80;74.80;;;;;;4929099;29;20212;-70
2023/06/17 06:53:35;;;;;;;9.30;6.20;;;19.80;75.00;;;;;;4944614;29;20051;-69
2023/06/17 06:56:00;;;;;;;8.88;5.93;;;19.80;74.90;;;;;;4944214;29;20030;-70
2023/06/17 06:58:29;;;;;;;9.57;6.43;;;19.80;74.80;;;;;;4944481;29;20054;-70
2023/06/17 07:00:54;;;;;;;9.20;6.35;;;19.90;74.70;;;;;;4943942;29;20107;-70
2023/06/17 07:03:21;;;;;;;8.32;5.68;;;20.10;74.30;;;;;;4944391;29;20050;-69
2023/06/17 07:05:46;;;;;;;9.10;5.85;;;20.30;73.50;;;;;;4944854;29;20065;-69
2023/06/17 07:08:13;;;;;;;8.15;5.68;;;20.50;72.90;;;;;;4944352;29;20087;-72
2023/06/17 07:10:39;;;;;;;9.73;5.25;;;20.60;73.20;;;;;;4945196;29;20032;-70
2023/06/17 07:13:07;;;;;;;9.00;5.53;;;20.80;72.10;;;;;;4945263;29;20032;-71
2023/06/17 07:15:33;;;;;;;11.27;5.60;;;20.90;71.90;;;;;;4944293;29;20039;-71
2023/06/17 07:17:59;;;;;;;10.50;5.60;;;21.10;71.90;;;;;;4944893;29;20024;-70
2023/06/17 07:20:25;;;;;;;8.95;5.57;;;21.20;71.00;;;;;;4944365;29;20082;-70
2023/06/17 07:22:51;;;;;;;9.15;5.72;;;21.40;70.70;;;;;;4943748;29;20024;-69
2023/06/17 07:25:17;;;;;;;8.13;5.80;;;21.50;70.40;;;;;;4944291;29;20050;-70
2023/06/17 07:27:44;;;;;;;6.90;5.40;;;21.60;69.90;;;;;;4943553;29;20083;-71
2023/06/17 07:30:10;;;;;;;8.60;5.63;;;21.70;69.60;;;;;;4945481;29;20237;-70
2023/06/17 07:32:36;;;;;;;11.18;5.40;;;21.80;69.50;;;;;;4943816;29;20059;-70
2023/06/17 07:35:02;;;;;;;7.43;5.20;;;21.80;69.10;;;;;;4944984;29;20032;-69
2023/06/17 07:37:28;;;;;;;8.50;5.68;;;22.00;68.70;;;;;;4944127;29;20043;-70
2023/06/17 07:39:56;;;;;;;8.43;5.33;;;22.20;68.70;;;;;;4943512;29;20048;-70
2023/06/17 07:42:22;;;;;;;12.88;5.85;;;22.30;68.10;;;;;;4945102;29;20439;-70
2023/06/17 07:44:47;;;;;;;11.00;5.20;;;22.50;67.70;;;;;;4944419;29;20035;-70
2023/06/17 07:47:13;;;;;;;7.78;5.22;;;22.60;67.30;;;;;;4944093;29;20035;-70
2023/06/17 07:49:39;;;;;;;9.55;5.43;;;22.80;67.10;;;;;;4945064;29;20359;-70
2023/06/17 07:52:05;;;;;;;9.10;5.50;;;22.80;66.70;;;;;;4944773;29;20079;-70
2023/06/17 07:54:35;;;;;;;7.93;5.32;;;22.90;66.90;;;;;;4943927;29;20038;-70
2023/06/17 07:57:02;;;;;;;11.43;6.07;;;23.20;66.20;;;;;;4941692;29;20038;-69
2023/06/17 07:59:29;;;;;;;11.50;6.15;;;23.10;65.80;;;;;;4928774;29;20091;-70
2023/06/17 08:01:55;;;;;;;12.32;6.05;;;23.20;66.40;;;;;;4928952;29;20079;-70
2023/06/17 08:04:20;;;;;;;9.13;7.18;;;23.30;66.10;;;;;;4929401;29;20048;-69
2023/06/17 08:06:46;;;;;;;6.22;5.07;;;23.40;65.60;;;;;;4928867;29;20330;-69
2023/06/17 08:09:12;;;;;;;7.43;5.50;;;23.60;65.50;;;;;;4931220;29;20032;-70
2023/06/17 08:11:38;;;;;;;6.97;5.30;;;23.70;65.30;;;;;;4948263;29;20082;-69
2023/06/17 08:14:04;;;;;;;6.65;4.82;;;23.80;65.40;;;;;;4946691;29;20027;-70
2023/06/17 08:16:29;;;;;;;6.97;4.90;;;23.90;64.90;;;;;;4932633;29;20301;-70
2023/06/17 08:18:55;;;;;;;8.60;5.28;;;24.00;64.50;;;;;;4949103;29;20035;-70
2023/06/17 08:21:21;;;;;;;8.02;5.97;;;23.90;64.40;;;;;;4950144;29;20019;-69
2023/06/17 08:23:50;;;;;;;8.80;5.00;;;24.10;64.60;;;;;;4940468;29;20031;-69
2023/06/17 08:26:16;;;;;;;9.45;4.80;;;24.30;63.50;;;;;;4948294;29;20340;-70
2023/06/17 08:28:42;;;;;;;6.40;4.70;;;24.40;63.00;;;;;;4947775;29;20036;-71
2023/06/17 08:31:08;;;;;;;6.97;4.40;;;24.50;62.40;;;;;;4944718;29;20099;-71
2023/06/17 08:33:34;;;;;;;8.48;5.18;;;24.60;61.30;;;;;;4947619;29;20095;-69
2023/06/17 08:35:59;;;;;;;7.78;5.22;;;24.60;60.80;;;;;;4947716;29;20024;-70
2023/06/17 08:38:25;;;;;;;8.15;4.30;;;24.60;60.50;;;;;;4946860;29;20036;-70
2023/06/17 08:40:52;;;;;;;7.75;4.28;;;24.70;59.40;;;;;;4947437;29;20027;-70
2023/06/17 08:43:19;;;;;;;6.15;4.30;;;24.60;59.00;;;;;;4947995;29;20042;-70
2023/06/17 08:45:49;;;;;;;9.27;7.37;;;24.70;59.70;;;;;;4948127;29;20027;-69
2023/06/17 08:48:15;;;;;;;17.30;12.60;;;25.00;59.20;;;;;;4947600;29;20454;-71
2023/06/17 08:50:42;;;;;;;6.82;4.53;;;25.20;58.60;;;;;;4948079;29;20027;-72
2023/06/17 08:53:08;;;;;;;8.10;4.50;;;25.30;57.60;;;;;;4947201;29;20032;-73
2023/06/17 08:55:35;;;;;;;6.28;4.40;;;25.50;57.40;;;;;;4947982;29;20039;-73
2023/06/17 08:58:02;;;;;;;7.50;4.30;;;25.60;56.40;;;;;;4947361;29;20075;-72
2023/06/17 09:00:27;;;;;;;5.80;4.28;;;25.70;56.80;;;;;;4947838;29;20312;-74
2023/06/17 09:02:56;;;;;;;5.80;3.85;;;25.70;56.90;;;;;;4948476;29;20027;-72
2023/06/17 09:05:22;;;;;;;6.47;3.80;;;26.00;56.60;;;;;;4947749;29;20039;-72
2023/06/17 09:07:47;;;;;;;6.82;4.18;;;26.10;55.80;;;;;;4947672;29;20031;-73
2023/06/17 09:10:15;;;;;;;6.80;3.83;;;26.10;55.00;;;;;;4947133;29;20136;-74
2023/06/17 09:12:41;;;;;;;7.00;4.50;;;26.30;56.00;;;;;;4947607;29;20051;-73
2023/06/17 09:15:08;;;;;;;6.07;3.85;;;26.50;55.10;;;;;;4947468;29;20082;-70
2023/06/17 09:17:37;;;;;;;7.80;4.20;;;26.70;54.20;;;;;;4947712;29;20102;-71
2023/06/17 09:20:16;;;;;;;7.10;4.10;;;26.80;53.30;;;;;;4947195;29;20046;-71
2023/06/17 09:22:44;;;;;;;5.97;3.85;;;26.50;53.40;;;;;;4947601;29;20027;-71
2023/06/17 09:25:12;;;;;;;6.45;3.80;;;26.80;53.40;;;;;;4946879;29;20066;-71
2023/06/17 09:28:04;;;;;;;8.02;4.38;;;26.90;52.90;;;;;;4947050;29;20309;-71
2023/06/17 09:30:30;;;;;;;7.60;4.60;;;27.00;53.50;;;;;;4945157;29;20067;-71
2023/06/17 09:32:55;;;;;;;5.97;3.72;;;27.20;53.40;;;;;;4946889;29;20031;-71
2023/06/17 09:35:21;;;;;;;5.57;4.05;;;27.50;52.10;;;;;;4947341;29;20076;-71
2023/06/17 09:37:49;;;;;;;7.00;4.10;;;27.50;52.00;;;;;;4946962;29;20075;-71
2023/06/17 09:40:15;;;;;;;7.53;4.20;;;27.60;52.30;;;;;;4947412;29;20035;-72
2023/06/17 09:42:46;;;;;;;5.15;3.58;;;27.80;53.00;;;;;;4946773;29;20075;-70
2023/06/17 09:45:19;;;;;;;7.28;3.83;;;28.00;52.30;;;;;;4945294;29;20039;-72
2023/06/17 09:48:04;;;;;;;6.60;4.18;;;27.90;51.40;;;;;;4947021;29;20043;-72
2023/06/17 09:50:32;;;;;;;5.82;3.50;;;27.80;51.20;;;;;;4947023;29;20067;-71
2023/06/17 09:53:00;;;;;;;6.85;3.63;;;27.90;51.80;;;;;;4946240;29;20254;-71
2023/06/17 09:55:26;;;;;;;5.88;3.88;;;28.20;50.00;;;;;;4946642;29;20035;-71
2023/06/17 09:57:55;;;;;;;7.78;4.00;;;28.10;49.80;;;;;;4946224;29;20042;-71
2023/06/17 10:00:24;;;;;;;13.02;11.10;;;28.30;50.00;;;;;;4946720;29;20047;-71
2023/06/17 10:02:53;;;;;;;5.53;3.30;;;28.40;50.60;;;;;;4946453;29;20035;-73
2023/06/17 10:05:20;;;;;;;5.90;3.33;;;28.40;48.30;;;;;;4946495;29;20051;-73
2023/06/17 10:07:47;;;;;;;4.15;2.90;;;28.50;47.40;;;;;;4946576;29;20070;-73
2023/06/17 10:10:15;;;;;;;4.22;3.17;;;28.30;47.50;;;;;;4946126;29;20048;-73
2023/06/17 10:12:44;;;;;;;6.13;3.30;;;28.30;47.10;;;;;;4946449;29;20221;-73
2023/06/17 10:15:12;;;;;;;7.05;3.17;;;28.50;47.10;;;;;;4946153;29;20031;-73
2023/06/17 10:17:41;;;;;;;5.43;3.17;;;28.50;46.90;;;;;;4946965;29;20038;-73
2023/06/17 10:20:08;;;;;;;5.53;3.40;;;28.40;47.40;;;;;;4945828;29;20042;-71
2023/06/17 10:22:37;;;;;;;4.97;3.20;;;28.50;47.30;;;;;;4945837;29;20039;-72
2023/06/17 10:25:05;;;;;;;4.32;2.72;;;28.50;47.30;;;;;;4945489;29;20031;-72
2023/06/17 10:27:31;;;;;;;4.00;2.72;;;28.60;47.50;;;;;;4946043;29;20035;-72
2023/06/17 10:30:01;;;;;;;4.47;3.20;;;28.50;47.00;;;;;;4945574;29;20035;-71
2023/06/17 10:32:26;;;;;;;5.38;3.70;;;28.20;47.10;;;;;;4945869;29;20038;-71
2023/06/17 10:35:10;;;;;;;4.60;3.10;;;28.30;47.70;;;;;;4945748;29;20031;-72
2023/06/17 10:37:49;;;;;;;5.13;3.40;;;28.40;47.90;;;;;;4946063;29;20040;-74
2023/06/17 10:40:24;;;;;;;5.50;3.15;;;28.40;47.60;;;;;;4945515;29;20024;-73
2023/06/17 10:43:14;;;;;;;4.28;3.10;;;28.30;47.10;;;;;;4946236;29;20042;-73
2023/06/17 10:45:51;;;;;;;4.68;3.08;;;28.30;47.90;;;;;;4946538;29;20094;-73
2023/06/17 10:48:35;;;;;;;5.28;3.35;;;28.30;47.60;;;;;;4946926;29;20051;-73
2023/06/17 10:51:09;;;;;;;5.32;3.33;;;28.30;47.30;;;;;;4947416;29;20129;-72
2023/06/17 10:53:40;;;;;;;6.00;3.15;;;28.70;46.80;;;;;;4947147;29;20031;-72
2023/06/17 10:56:06;;;;;;;5.05;3.30;;;28.70;47.00;;;;;;4945507;29;20035;-72
2023/06/17 10:58:35;;;;;;;6.40;3.40;;;28.60;46.90;;;;;;4945468;29;20060;-72
2023/06/17 11:01:07;;;;;;;4.47;3.17;;;28.50;47.00;;;;;;4944747;29;20024;-72
2023/06/17 11:03:34;;;;;;;6.18;3.28;;;28.70;46.80;;;;;;4945752;29;20047;-72
2023/06/17 11:06:05;;;;;;;5.55;3.40;;;28.80;46.60;;;;;;4944836;29;20051;-71
2023/06/17 11:08:33;;;;;;;5.78;3.20;;;29.00;46.60;;;;;;4945298;29;20191;-71
2023/06/17 11:11:09;;;;;;;5.07;3.25;;;29.10;46.60;;;;;;4944681;29;20103;-72
2023/06/17 11:13:37;;;;;;;6.95;3.97;;;29.40;45.90;;;;;;4945867;29;20027;-70
2023/06/17 11:16:03;;;;;;;9.30;5.32;;;29.50;45.90;;;;;;4945143;29;20042;-76
2023/06/17 11:18:29;;;;;;;7.00;4.00;;;29.70;45.50;;;;;;4945407;29;20269;-75
2023/06/17 11:20:55;;;;;;;6.97;4.50;;;30.00;46.00;;;;;;4945362;29;20035;-74
2023/06/17 11:23:21;;;;;;;8.13;4.78;;;30.30;45.10;;;;;;4945455;29;20039;-74
2023/06/17 11:25:51;;;;;;;4.70;3.35;;;30.80;44.70;;;;;;4945276;29;20036;-73
2023/06/17 11:28:19;;;;;;;5.65;3.70;;;30.50;43.90;;;;;;4944713;29;20050;-72
2023/06/17 11:30:45;;;;;;;6.32;3.60;;;30.20;44.30;;;;;;4944942;29;20102;-72
2023/06/17 11:33:12;;;;;;;5.25;3.40;;;30.10;44.60;;;;;;4946880;29;20032;-73
2023/06/17 11:35:38;;;;;;;4.97;3.22;;;30.50;44.30;;;;;;4949076;29;20030;-73
2023/06/17 11:38:04;;;;;;;4.93;3.03;;;31.10;43.30;;;;;;4948868;29;20051;-72
2023/06/17 11:40:30;;;;;;;4.25;3.10;;;31.20;43.00;;;;;;4949367;29;20026;-73
2023/06/17 11:43:00;;;;;;;4.13;3.22;;;32.10;44.40;;;;;;4948185;29;20032;-72
2023/06/17 11:45:27;;;;;;;5.88;3.47;;;32.70;43.30;;;;;;4949225;29;20086;-71
2023/06/17 11:47:53;;;;;;;6.45;3.42;;;32.60;44.00;;;;;;4949215;29;20039;-73
2023/06/17 11:50:19;;;;;;;4.55;2.95;;;32.00;43.90;;;;;;4948774;29;20040;-73
2023/06/17 11:52:56;;;;;;;5.97;3.17;;;32.50;44.00;;;;;;4949111;29;20320;-73
2023/06/17 11:55:35;;;;;;;4.50;2.88;;;33.70;42.90;;;;;;4948231;29;20066;-74
2023/06/17 11:58:03;;;;;;;4.70;2.80;;;34.80;42.50;;;;;;4948067;29;20373;-72
2023/06/17 12:00:29;;;;;;;;;;;35.50;40.80;;;;;;4949563;29;20111;-73
2023/06/17 12:02:57;;;;;;;4.30;3.30;;;35.00;40.70;;;;;;4948527;29;19907;-72
2023/06/17 12:05:30;;;;;;;4.95;3.20;;;34.70;40.90;;;;;;4948303;29;20044;-72
2023/06/17 12:08:00;;;;;;;3.92;2.90;;;35.50;40.30;;;;;;4948670;29;20318;-73
2023/06/17 12:10:26;;;;;;;3.92;2.63;;;36.70;40.40;;;;;;4948354;29;20035;-73
2023/06/17 12:12:58;;;;;;;4.53;2.65;;;38.30;39.70;;;;;;4948324;29;20102;-72
2023/06/17 12:15:28;;;;;;;6.03;2.90;;;38.40;38.60;;;;;;4948722;29;20214;-74
2023/06/17 12:17:54;;;;;;;4.03;2.92;;;38.50;38.10;;;;;;4947580;29;20035;-74
2023/06/17 12:20:21;;;;;;;5.50;3.05;;;37.50;37.80;;;;;;4948143;29;20032;-73
2023/06/17 12:22:49;;;;;;;5.15;2.80;;;37.80;38.00;;;;;;4948378;29;20036;-72
2023/06/17 12:25:15;;;;;;;4.30;2.75;;;38.30;38.50;;;;;;4948161;29;20053;-73
2023/06/17 12:27:42;;;;;;;3.10;2.70;;;39.00;37.30;;;;;;4948070;29;20337;-72
2023/06/17 12:30:09;;;;;;;3.58;2.65;;;39.70;37.30;;;;;;4947609;29;20059;-73
2023/06/17 12:32:37;;;;;;;4.18;2.95;;;38.80;37.50;;;;;;4948402;29;20066;-73
2023/06/17 12:35:03;;;;;;;4.72;2.70;;;37.40;37.80;;;;;;4948224;29;20031;-72
2023/06/17 12:37:31;;;;;;;4.03;2.53;;;36.80;38.30;;;;;;4948681;29;20057;-73
2023/06/17 12:39:59;;;;;;;5.53;2.90;;;38.10;38.10;;;;;;4947962;29;20040;-71
2023/06/17 12:42:25;;;;;;;4.07;2.67;;;39.10;37.50;;;;;;4947674;29;20349;-73
2023/06/17 12:44:51;;;;;;;3.28;2.38;;;39.50;37.10;;;;;;4947562;29;20036;-72
2023/06/17 12:47:22;;;;;;;4.28;2.33;;;39.30;36.80;;;;;;4947875;29;20086;-72
2023/06/17 12:49:48;;;;;;;3.60;2.50;;;39.40;37.00;;;;;;4948143;29;20036;-73
2023/06/17 12:52:14;;;;;;;3.67;2.42;;;40.60;36.50;;;;;;4947797;29;20038;-73
2023/06/17 12:54:43;;;;;;;3.45;2.50;;;40.70;36.60;;;;;;4947994;29;20093;-71
2023/06/17 12:57:09;;;;;;;3.15;2.65;;;41.30;36.20;;;;;;4946905;29;20039;-73
2023/06/17 12:59:35;;;;;;;3.20;2.40;;;41.60;35.80;;;;;;4947840;29;20090;-73
2023/06/17 13:02:01;;;;;;;3.45;2.65;;;41.50;35.50;;;;;;4947519;29;20190;-72
2023/06/17 13:04:27;;;;;;;4.25;2.50;;;41.60;35.70;;;;;;4947092;29;20044;-73
2023/06/17 13:06:53;;;;;;;3.72;2.60;;;41.50;35.30;;;;;;4947649;29;20038;-72
2023/06/17 13:09:19;;;;;;;3.63;2.30;;;41.70;35.20;;;;;;4946915;29;20027;-73
2023/06/17 13:11:45;;;;;;;3.63;1.90;;;41.40;35.50;;;;;;4947815;29;20063;-72
2023/06/17 13:14:11;;;;;;;3.88;2.50;;;42.30;35.20;;;;;;4947050;29;20035;-72
2023/06/17 13:16:36;;;;;;;3.47;2.38;;;43.10;34.40;;;;;;4947424;29;20035;-73
2023/06/17 13:19:03;;;;;;;3.08;2.42;;;43.90;34.50;;;;;;4947348;29;20076;-70
2023/06/17 13:21:28;;;;;;;4.35;2.40;;;44.10;34.10;;;;;;4947624;29;20088;-73
2023/06/17 13:23:54;;;;;;;4.43;2.30;;;44.30;34.40;;;;;;4947573;29;20047;-72
2023/06/17 13:26:26;;;;;;;4.20;2.30;;;44.50;34.10;;;;;;4946615;29;20043;-74
2023/06/17 13:28:52;;;;;;;3.90;2.10;;;44.50;33.80;;;;;;4947347;29;20035;-71
2023/06/17 13:31:18;;;;;;;7.00;2.95;;;44.40;33.90;;;;;;4946888;29;20047;-71
2023/06/17 13:33:44;;;;;;;4.63;2.78;;;44.40;33.90;;;;;;4947151;29;20042;-71
2023/06/17 13:36:10;;;;;;;3.70;2.40;;;44.70;34.20;;;;;;4946188;29;20083;-72
2023/06/17 13:38:35;;;;;;;2.83;2.42;;;45.20;33.80;;;;;;4947057;29;20302;-73
2023/06/17 13:41:01;;;;;;;3.50;2.50;;;45.30;33.30;;;;;;4947334;29;20035;-73
2023/06/17 13:43:27;;;;;;;3.88;2.35;;;45.10;33.60;;;;;;4946445;29;20035;-73
2023/06/17 13:45:53;;;;;;;2.53;2.10;;;45.30;33.40;;;;;;4946936;29;20095;-73
2023/06/17 13:48:19;;;;;;;3.38;2.20;;;45.40;33.20;;;;;;4946047;29;20054;-70
2023/06/17 13:50:44;;;;;;;3.70;2.20;;;45.20;33.40;;;;;;4946879;29;20035;-70
2023/06/17 13:53:10;;;;;;;3.70;2.63;;;45.10;33.30;;;;;;4946303;29;20205;-70
2023/06/17 13:55:37;;;;;;;3.67;2.63;;;45.80;32.90;;;;;;4946151;29;20328;-71
2023/06/17 13:58:03;;;;;;;3.50;2.55;;;45.40;33.00;;;;;;4946468;29;20031;-72
2023/06/17 14:00:29;;;;;;;4.38;2.65;;;46.00;33.50;;;;;;4946105;29;20039;-73
2023/06/17 14:02:55;;;;;;;2.92;2.28;;;45.60;33.20;;;;;;4946251;29;20063;-72
2023/06/17 14:05:21;;;;;;;4.05;2.70;;;46.00;33.30;;;;;;4945489;29;20043;-72
2023/06/17 14:07:46;;;;;;;5.43;2.73;;;45.90;32.90;;;;;;4946504;29;20328;-75
2023/06/17 14:10:12;;;;;;;2.60;2.20;;;46.70;33.50;;;;;;4945815;29;20031;-71
2023/06/17 14:12:38;;;;;;;2.93;2.63;;;47.40;32.50;;;;;;4946370;29;20376;-75
2023/06/17 14:15:04;;;;;;;3.63;2.50;;;45.70;32.60;;;;;;4961294;29;20050;-72
2023/06/17 14:17:30;;;;;;;6.45;2.65;;;45.70;33.00;;;;;;4946138;29;20054;-71
2023/06/17 14:19:56;;;;;;;3.78;2.55;;;45.90;33.20;;;;;;4946345;29;20043;-71
2023/06/17 14:22:22;;;;;;;3.23;2.27;;;47.00;32.60;;;;;;4945806;29;20059;-71
2023/06/17 14:24:48;;;;;;;3.73;2.80;;;46.70;32.60;;;;;;4946078;29;20042;-73
2023/06/17 14:27:33;;;;;;;3.10;2.57;;;47.70;32.00;;;;;;4945756;29;20202;-72
2023/06/17 14:29:59;;;;;;;5.57;2.90;;;47.30;31.90;;;;;;4946126;29;20035;-72
2023/06/17 14:32:24;;;;;;;3.13;2.60;;;47.70;31.70;;;;;;4944447;29;20095;-73
2023/06/17 14:34:50;;;;;;;5.17;2.80;;;45.60;31.70;;;;;;4946280;29;20027;-71
2023/06/17 14:37:16;;;;;;;3.70;2.40;;;46.00;32.40;;;;;;4946125;29;20023;-72
2023/06/17 14:39:42;;;;;;;9.38;3.15;;;46.50;32.60;;;;;;4946002;29;20043;-72
2023/06/17 14:42:08;;;;;;;3.20;2.40;;;46.80;32.40;;;;;;4945722;29;20099;-74
2023/06/17 14:44:34;;;;;;;4.47;2.70;;;47.00;32.60;;;;;;4946062;29;20023;-72
2023/06/17 14:47:00;;;;;;;3.63;2.80;;;46.90;33.20;;;;;;4945790;29;20040;-71
2023/06/17 14:49:26;;;;;;;3.53;2.70;;;47.70;32.00;;;;;;4945312;29;20284;-73
2023/06/17 14:51:52;;;;;;;4.45;2.90;;;48.40;32.20;;;;;;4946094;29;20035;-73
2023/06/17 14:54:17;;;;;;;4.03;3.10;;;48.30;32.10;;;;;;4945637;29;20356;-74
2023/06/17 14:56:44;;;;;;;4.43;2.90;;;49.00;31.40;;;;;;4945636;29;20053;-72
2023/06/17 14:59:10;;;;;;;3.45;2.53;;;48.60;31.50;;;;;;4945128;29;20276;-73
2023/06/17 15:01:37;;;;;;;3.38;2.90;;;48.50;31.60;;;;;;4945670;29;20047;-73
2023/06/17 15:04:06;;;;;;;3.10;2.60;;;47.50;31.80;;;;;;4945635;29;20090;-72
2023/06/17 15:06:33;;;;;;;5.00;3.45;;;46.40;32.40;;;;;;4945175;29;20051;-72
2023/06/17 15:09:23;;;;;;;;;;;45.60;32.80;;;;;;4945641;29;20226;-71
2023/06/17 15:11:49;;;;;;;5.00;2.80;;;46.60;32.60;;;;;;4945665;29;19934;-72
2023/06/17 15:14:15;;;;;;;3.65;3.08;;;46.90;32.50;;;;;;4945038;29;20043;-72
2023/06/17 15:16:40;;;;;;;4.57;2.80;;;46.30;32.10;;;;;;4945748;29;20042;-74
2023/06/17 15:19:07;;;;;;;3.58;2.80;;;46.10;32.10;;;;;;4945308;29;20218;-72
2023/06/17 15:21:33;;;;;;;2.97;2.53;;;46.50;32.50;;;;;;4945023;29;20099;-72
2023/06/17 15:23:59;;;;;;;3.90;2.83;;;47.00;32.60;;;;;;4945747;29;20031;-72
2023/06/17 15:26:25;;;;;;;4.23;3.17;;;47.30;32.10;;;;;;4945185;29;20086;-72
2023/06/17 15:28:50;;;;;;;3.60;2.83;;;46.60;32.30;;;;;;4945743;29;20103;-72
2023/06/17 15:31:16;;;;;;;3.97;3.13;;;46.90;32.50;;;;;;4944717;29;20222;-72
2023/06/17 15:33:42;;;;;;;3.70;2.87;;;47.00;32.20;;;;;;4945636;29;20015;-74
2023/06/17 15:36:07;;;;;;;3.50;2.90;;;47.70;32.10;;;;;;4945210;29;20237;-73
2023/06/17 15:38:33;;;;;;;4.70;2.97;;;48.10;31.80;;;;;;4944655;29;20062;-73
2023/06/17 15:40:59;;;;;;;3.10;2.80;;;48.30;32.00;;;;;;4944600;29;20036;-72
2023/06/17 15:43:24;;;;;;;3.70;2.90;;;48.30;31.80;;;;;;4945068;29;20027;-71
2023/06/17 15:45:50;;;;;;;5.53;3.27;;;47.80;31.70;;;;;;4945522;29;20031;-72
2023/06/17 15:48:16;;;;;;;3.70;3.07;;;47.30;32.10;;;;;;4944787;29;20039;-72
2023/06/17 15:50:42;;;;;;;3.67;2.77;;;47.50;31.80;;;;;;4945685;29;20428;-72
2023/06/17 15:53:07;;;;;;;3.50;2.97;;;46.40;32.00;;;;;;4945373;29;20035;-74
2023/06/17 15:55:33;;;;;;;4.05;3.05;;;46.20;32.40;;;;;;4944488;29;20032;-72
2023/06/17 15:57:59;;;;;;;4.65;3.38;;;45.80;32.80;;;;;;4944960;29;20028;-73
2023/06/17 16:00:25;;;;;;;3.50;3.20;;;45.50;32.60;;;;;;4944520;29;20229;-72
2023/06/17 16:02:51;;;;;;;4.78;3.20;;;45.10;32.90;;;;;;4944833;29;20098;-73
2023/06/17 16:05:18;;;;;;;3.90;3.28;;;45.60;32.70;;;;;;4944425;29;20055;-73
2023/06/17 16:07:44;;;;;;;;;;;45.40;32.60;;;;;;4945496;29;20149;-73
2023/06/17 16:10:10;;;;;;;3.70;3.23;;;44.70;32.50;;;;;;4943981;29;19914;-72
2023/06/17 16:12:37;;;;;;;3.78;2.92;;;44.00;33.10;;;;;;4944542;29;20035;-74
2023/06/17 16:15:05;;;;;;;4.53;3.03;;;44.00;33.40;;;;;;4945079;29;20242;-73
2023/06/17 16:17:30;;;;;;;5.63;3.38;;;44.80;32.90;;;;;;4944337;29;20217;-72
2023/06/17 16:19:57;;;;;;;5.20;3.15;;;44.70;32.50;;;;;;4946669;29;20038;-73
2023/06/17 16:22:23;;;;;;;;;;;44.70;32.60;;;;;;4948735;29;20143;-74
2023/06/17 16:24:49;;;;;;;4.40;3.30;;;44.80;32.90;;;;;;4948727;29;19906;-73
2023/06/17 16:27:15;;;;;;;4.47;3.60;;;43.70;32.80;;;;;;4947929;29;20042;-74
2023/06/17 16:29:41;;;;;;;5.07;3.67;;;42.30;33.50;;;;;;4948187;29;20031;-73
2023/06/17 16:32:08;;;;;;;6.28;3.97;;;41.10;33.60;;;;;;4948475;29;20031;-73
2023/06/17 16:34:34;;;;;;;9.32;4.00;;;40.90;34.30;;;;;;4947622;29;20353;-74
2023/06/17 16:37:00;;;;;;;5.22;3.50;;;41.50;34.40;;;;;;4948411;29;20031;-73
2023/06/17 16:39:26;;;;;;;6.60;3.65;;;41.60;33.70;;;;;;4947587;29;20039;-74
2023/06/17 16:41:52;;;;;;;4.65;3.78;;;41.10;34.20;;;;;;4948267;29;20087;-73
2023/06/17 16:44:18;;;;;;;5.47;3.63;;;41.10;34.10;;;;;;4947603;29;20294;-73
2023/06/17 16:46:46;;;;;;;4.70;3.70;;;41.80;34.30;;;;;;4947728;29;20044;-72
2023/06/17 16:49:11;;;;;;;;;;;41.80;34.00;;;;;;4947388;29;20047;-75
2023/06/17 16:51:37;;;;;;;6.25;3.78;;;41.50;33.60;;;;;;4947243;29;19913;-74
2023/06/17 16:54:03;;;;;;;5.15;4.32;;;41.20;33.90;;;;;;4947852;29;20082;-75
2023/06/17 16:56:28;;;;;;;5.30;3.70;;;41.20;34.30;;;;;;4947429;29;20030;-74
2023/06/17 16:58:54;;;;;;;5.15;3.70;;;40.60;34.50;;;;;;4947531;29;20032;-73
2023/06/17 17:01:20;;;;;;;5.88;4.05;;;40.00;34.60;;;;;;4947453;29;20031;-73
2023/06/17 17:03:46;;;;;;;4.75;3.72;;;39.50;35.10;;;;;;4947815;29;20102;-74
2023/06/17 17:06:12;;;;;;;7.85;4.38;;;38.90;34.70;;;;;;4947240;29;20036;-74
2023/06/17 17:08:37;;;;;;;5.80;4.47;;;38.60;34.80;;;;;;4947450;29;20106;-74
2023/06/17 17:11:03;;;;;;;4.97;3.65;;;38.20;35.10;;;;;;4947153;29;20031;-74
2023/06/17 17:13:29;;;;;;;5.53;4.18;;;37.50;35.60;;;;;;4947222;29;20083;-74
2023/06/17 17:15:55;;;;;;;6.95;4.30;;;37.00;35.70;;;;;;4962372;29;20028;-75
2023/06/17 17:18:20;;;;;;;6.88;4.30;;;36.90;35.90;;;;;;4961955;29;20198;-73
2023/06/17 17:20:46;;;;;;;8.60;4.43;;;36.50;36.30;;;;;;4947582;29;20340;-74
2023/06/17 17:23:12;;;;;;;5.40;3.70;;;36.10;36.40;;;;;;4947589;29;20031;-74
2023/06/17 17:25:37;;;;;;;5.50;4.10;;;35.60;36.40;;;;;;4947093;29;20038;-75
2023/06/17 17:28:04;;;;;;;5.93;4.57;;;35.30;36.80;;;;;;4947571;29;20031;-75
2023/06/17 17:30:30;;;;;;;6.00;4.32;;;35.20;36.70;;;;;;4946816;29;20031;-75
2023/06/17 17:32:56;;;;;;;5.70;4.10;;;35.10;37.40;;;;;;4947152;29;20042;-74
2023/06/17 17:35:21;;;;;;;6.07;4.60;;;35.00;37.30;;;;;;4946974;29;20090;-76
2023/06/17 17:37:47;;;;;;;5.60;3.80;;;35.10;37.30;;;;;;4946216;29;20028;-75
2023/06/17 17:40:13;;;;;;;6.85;4.68;;;35.70;37.50;;;;;;4946750;29;20039;-74
2023/06/17 17:42:39;;;;;;;5.82;4.70;;;35.30;37.00;;;;;;4946380;29;20035;-75
2023/06/17 17:45:05;;;;;;;7.45;4.50;;;34.70;37.60;;;;;;4946733;29;20062;-73
2023/06/17 17:47:31;;;;;;;6.70;4.40;;;34.50;38.10;;;;;;4946240;29;20314;-73
2023/06/17 17:49:57;;;;;;;7.18;4.55;;;34.00;38.30;;;;;;4946976;29;20039;-74